createdAt,value
2023-04-07T00:01:21.713Z,97.06
2023-04-07T00:03:51.529Z,97.11
2023-04-07T00:06:21.487Z,97.01
2023-04-07T00:08:53.770Z,97.08
2023-04-07T00:11:23.464Z,97.00
2023-04-07T00:13:53.348Z,96.88
2023-04-07T00:16:23.331Z,96.78
2023-04-07T00:18:53.027Z,96.97
2023-04-07T00:21:22.754Z,96.79
2023-04-07T00:23:55.494Z,97.07
2023-04-07T00:26:27.250Z,97.02
2023-04-07T00:28:56.960Z,97.07
2023-04-07T00:31:26.787Z,97.25
2023-04-07T00:33:57.921Z,97.09
2023-04-07T00:36:29.058Z,97.24
2023-04-07T00:39:01.376Z,97.40
2023-04-07T00:41:31.037Z,97.38
2023-04-07T00:44:00.938Z,97.45
2023-04-07T00:46:31.216Z,97.34
2023-04-07T00:49:01.523Z,97.25
2023-04-07T00:51:31.706Z,97.25
2023-04-07T00:54:04.661Z,97.40
2023-04-07T00:56:35.251Z,97.48
2023-04-07T00:59:07.088Z,97.33
2023-04-07T01:01:42.873Z,97.27
2023-04-07T01:04:16.334Z,97.28
2023-04-07T01:06:53.098Z,97.30
2023-04-07T01:09:40.092Z,97.50
2023-04-07T01:12:15.940Z,97.23
2023-04-07T01:14:54.791Z,97.20
2023-04-07T01:17:40.449Z,97.32
2023-04-07T01:20:10.940Z,97.44
2023-04-07T01:22:44.873Z,97.29
2023-04-07T01:25:41.716Z,97.33
2023-04-07T01:28:29.261Z,97.34
2023-04-07T01:31:03.135Z,97.40
2023-04-07T01:33:36.664Z,97.30
2023-04-07T01:36:08.752Z,97.17
2023-04-07T01:38:38.909Z,97.51
2023-04-07T01:41:09.200Z,97.45
2023-04-07T01:43:41.005Z,97.17
2023-04-07T01:46:13.885Z,97.49
2023-04-07T01:48:43.739Z,97.54
2023-04-07T01:51:17.645Z,97.65
2023-04-07T01:53:47.671Z,97.60
2023-04-07T01:56:17.623Z,97.59
2023-04-07T01:58:51.345Z,97.42
2023-04-07T02:01:26.680Z,97.16
2023-04-07T02:04:00.299Z,97.22
2023-04-07T02:06:35.313Z,97.29
2023-04-07T02:09:10.271Z,97.18
2023-04-07T02:11:40.580Z,97.13
2023-04-07T02:14:10.601Z,97.15
2023-04-07T02:17:02.191Z,97.27
2023-04-07T02:19:33.062Z,97.25
2023-04-07T02:22:04.147Z,97.10
2023-04-07T02:24:33.839Z,97.06
2023-04-07T02:27:03.729Z,97.21
2023-04-07T02:29:33.420Z,97.14
2023-04-07T02:32:06.116Z,97.31
2023-04-07T02:34:36.157Z,97.18
2023-04-07T02:37:06.313Z,97.27
2023-04-07T02:39:37.043Z,97.09
2023-04-07T02:42:06.953Z,97.02
2023-04-07T02:44:36.638Z,96.90
2023-04-07T02:47:08.912Z,97.18
2023-04-07T02:49:38.695Z,96.95
2023-04-07T02:52:09.401Z,96.93
2023-04-07T02:54:39.341Z,97.02
2023-04-07T02:57:10.512Z,96.86
2023-04-07T02:59:40.212Z,97.04
2023-04-07T03:02:15.401Z,96.96
2023-04-07T03:04:45.177Z,96.65
2023-04-07T03:07:15.540Z,96.91
2023-04-07T03:09:45.550Z,96.70
2023-04-07T03:12:16.449Z,96.75
2023-04-07T03:14:46.225Z,96.85
2023-04-07T03:17:18.478Z,96.68
2023-04-07T03:19:48.571Z,96.63
2023-04-07T03:22:18.246Z,96.66
2023-04-07T03:24:52.141Z,96.60
2023-04-07T03:27:24.222Z,96.48
2023-04-07T03:29:54.071Z,96.54
2023-04-07T03:32:27.344Z,96.29
2023-04-07T03:34:57.299Z,96.40
2023-04-07T03:37:26.983Z,96.57
2023-04-07T03:39:58.101Z,96.26
2023-04-07T03:42:30.384Z,96.34
2023-04-07T03:45:04.903Z,96.45
2023-04-07T03:47:39.410Z,96.50
2023-04-07T03:50:10.597Z,96.28
2023-04-07T03:52:50.762Z,96.41
2023-04-07T03:55:29.210Z,96.30
2023-04-07T03:58:03.902Z,96.39
2023-04-07T04:00:36.923Z,96.50
2023-04-07T04:03:13.629Z,96.81
2023-04-07T04:05:53.466Z,96.61
2023-04-07T04:08:29.874Z,96.56
2023-04-07T04:10:59.573Z,96.89
2023-04-07T04:13:35.069Z,96.88
2023-04-07T04:16:08.044Z,96.77
2023-04-07T04:18:42.808Z,96.65
2023-04-07T04:21:15.874Z,96.54
2023-04-07T04:23:47.166Z,96.38
2023-04-07T04:26:17.849Z,96.57
2023-04-07T04:28:48.483Z,96.57
2023-04-07T04:31:19.707Z,96.42
2023-04-07T04:33:52.755Z,96.21
2023-04-07T04:36:23.004Z,96.28
2023-04-07T04:38:54.246Z,96.28
2023-04-07T04:41:24.968Z,96.29
2023-04-07T04:43:55.362Z,96.28
2023-04-07T04:46:27.822Z,96.33
2023-04-07T04:49:00.264Z,96.26
2023-04-07T04:51:29.935Z,96.39
2023-04-07T04:54:06.516Z,96.53
2023-04-07T04:56:36.935Z,96.52
2023-04-07T04:59:07.331Z,96.68
2023-04-07T05:01:52.794Z,96.47
2023-04-07T05:04:25.277Z,96.49
2023-04-07T05:07:03.201Z,96.32
2023-04-07T05:09:34.767Z,96.42
2023-04-07T05:12:04.824Z,96.39
2023-04-07T05:14:39.528Z,96.44
2023-04-07T05:17:11.385Z,96.31
2023-04-07T05:19:44.194Z,96.36
2023-04-07T05:22:20.429Z,96.13
2023-04-07T05:24:51.523Z,96.17
2023-04-07T05:27:21.747Z,96.14
2023-04-07T05:29:55.644Z,96.42
2023-04-07T05:32:32.907Z,96.25
2023-04-07T05:35:11.590Z,96.40
2023-04-07T05:37:47.512Z,96.08
2023-04-07T05:40:17.485Z,96.17
2023-04-07T05:42:47.492Z,96.28
2023-04-07T05:45:20.671Z,96.20
2023-04-07T05:47:52.875Z,96.25
2023-04-07T05:50:31.966Z,96.43
2023-04-07T05:53:04.010Z,96.16
2023-04-07T05:55:34.434Z,96.51
2023-04-07T05:58:04.661Z,96.42
2023-04-07T06:00:35.836Z,96.24
2023-04-07T06:03:14.403Z,96.19
2023-04-07T06:06:01.916Z,96.13
2023-04-07T06:08:32.153Z,95.92
2023-04-07T06:11:01.957Z,96.08
2023-04-07T06:13:31.872Z,96.05
2023-04-07T06:16:01.544Z,96.05
2023-04-07T06:18:31.251Z,95.85
2023-04-07T06:21:04.432Z,95.86
2023-04-07T06:23:34.134Z,95.94
2023-04-07T06:26:03.932Z,95.78
2023-04-07T06:28:33.960Z,95.85
2023-04-07T06:31:03.661Z,95.82
2023-04-07T06:33:33.334Z,95.58
2023-04-07T06:36:05.714Z,95.62
2023-04-07T06:38:35.523Z,95.72
2023-04-07T06:41:05.516Z,95.56
2023-04-07T06:43:35.482Z,95.66
2023-04-07T06:46:07.200Z,95.76
2023-04-07T06:48:36.901Z,95.75
2023-04-07T06:51:09.281Z,95.57
2023-04-07T06:53:39.024Z,95.52
2023-04-07T06:56:10.848Z,95.58
2023-04-07T06:58:41.067Z,95.71
2023-04-07T07:01:11.265Z,95.56
2023-04-07T07:03:42.712Z,95.39
2023-04-07T07:06:15.614Z,95.51
2023-04-07T07:08:45.616Z,95.47
2023-04-07T07:11:15.789Z,95.43
2023-04-07T07:13:46.313Z,95.24
2023-04-07T07:16:16.709Z,95.33
2023-04-07T07:18:47.034Z,95.21
2023-04-07T07:21:20.560Z,95.01
2023-04-07T07:23:50.572Z,94.64
2023-04-07T07:26:21.087Z,94.67
2023-04-07T07:28:51.232Z,94.66
2023-04-07T07:31:21.514Z,94.61
2023-04-07T07:33:52.082Z,94.59
2023-04-07T07:36:24.404Z,94.49
2023-04-07T07:38:54.398Z,94.52
2023-04-07T07:41:24.108Z,94.28
2023-04-07T07:43:53.741Z,94.48
2023-04-07T07:46:24.581Z,94.36
2023-04-07T07:48:54.647Z,94.36
2023-04-07T07:51:28.119Z,94.27
2023-04-07T07:53:57.873Z,94.07
2023-04-07T07:56:27.590Z,94.18
2023-04-07T07:58:58.311Z,93.85
2023-04-07T08:01:28.208Z,93.82
2023-04-07T08:03:58.040Z,94.08
2023-04-07T08:06:31.578Z,93.88
2023-04-07T08:09:01.532Z,93.81
2023-04-07T08:11:31.205Z,93.90
2023-04-07T08:14:01.059Z,94.07
2023-04-07T08:16:31.001Z,93.92
2023-04-07T08:19:00.717Z,94.06
2023-04-07T08:21:32.941Z,93.86
2023-04-07T08:24:02.626Z,93.78
2023-04-07T08:26:32.292Z,93.87
2023-04-07T08:29:02.003Z,93.79
2023-04-07T08:31:31.739Z,93.69
2023-04-07T08:34:01.537Z,93.54
2023-04-07T08:36:33.838Z,93.29
2023-04-07T08:39:05.788Z,93.24
2023-04-07T08:41:38.541Z,92.92
2023-04-07T08:44:09.575Z,92.91
2023-04-07T08:46:41.573Z,92.95
2023-04-07T08:49:14.107Z,92.83
2023-04-07T08:51:50.036Z,92.83
2023-04-07T08:54:22.750Z,92.75
2023-04-07T08:56:52.499Z,92.74
2023-04-07T08:59:26.926Z,92.52
2023-04-07T09:01:57.056Z,92.71
2023-04-07T09:04:27.756Z,92.50
2023-04-07T09:07:02.200Z,92.51
2023-04-07T09:09:32.503Z,92.54
2023-04-07T09:12:02.181Z,92.50
2023-04-07T09:14:32.023Z,92.75
2023-04-07T09:17:02.668Z,92.55
2023-04-07T09:19:32.552Z,92.58
2023-04-07T09:22:04.816Z,92.60
2023-04-07T09:24:35.768Z,92.76
2023-04-07T09:27:16.980Z,93.05
2023-04-07T09:29:48.083Z,93.01
2023-04-07T09:32:39.398Z,93.14
2023-04-07T09:35:09.679Z,93.26
2023-04-07T09:37:42.799Z,93.27
2023-04-07T09:40:13.010Z,93.41
2023-04-07T09:42:49.646Z,93.49
2023-04-07T09:45:34.494Z,93.41
2023-04-07T09:48:09.162Z,93.42
2023-04-07T09:50:45.916Z,93.70
2023-04-07T09:53:19.281Z,93.57
2023-04-07T09:55:49.235Z,93.72
2023-04-07T09:58:19.243Z,93.94
2023-04-07T10:00:49.046Z,94.24
2023-04-07T10:03:18.787Z,94.41
2023-04-07T10:05:49.133Z,94.55
2023-04-07T10:08:21.582Z,94.71
2023-04-07T10:10:51.632Z,94.88
2023-04-07T10:13:21.688Z,95.01
2023-04-07T10:15:51.908Z,95.03
2023-04-07T10:18:23.176Z,95.18
2023-04-07T10:20:53.566Z,95.24
2023-04-07T10:23:31.798Z,95.13
2023-04-07T10:26:03.679Z,95.33
2023-04-07T10:28:34.512Z,95.52
2023-04-07T10:31:05.591Z,95.58
2023-04-07T10:33:52.452Z,95.89
2023-04-07T10:36:23.246Z,95.78
2023-04-07T10:39:26.213Z,95.89
2023-04-07T10:41:56.047Z,96.00
2023-04-07T10:44:50.867Z,95.88
2023-04-07T10:47:20.369Z,95.93
2023-04-07T10:50:21.642Z,95.87
2023-04-07T10:52:52.623Z,95.87
2023-04-07T10:55:36.790Z,95.73
2023-04-07T10:58:25.431Z,95.60
2023-04-07T11:01:25.030Z,95.56
2023-04-07T11:04:02.874Z,95.45
2023-04-07T11:06:32.793Z,95.50
2023-04-07T11:09:02.491Z,95.22
2023-04-07T11:11:42.612Z,95.27
2023-04-07T11:14:12.649Z,95.31
2023-04-07T11:16:46.578Z,95.19
2023-04-07T11:19:16.468Z,95.14
2023-04-07T11:21:46.294Z,94.98
2023-04-07T11:24:37.833Z,94.70
2023-04-07T11:27:13.000Z,94.71
2023-04-07T11:29:43.351Z,94.68
2023-04-07T11:32:13.948Z,94.64
2023-04-07T11:34:43.632Z,94.65
2023-04-07T11:37:22.975Z,94.60
2023-04-07T11:39:55.528Z,94.71
2023-04-07T11:42:41.414Z,94.24
2023-04-07T11:45:20.862Z,94.31
2023-04-07T11:47:51.156Z,94.10
2023-04-07T11:50:41.416Z,93.94
2023-04-07T11:53:12.252Z,93.61
2023-04-07T11:55:42.334Z,93.31
2023-04-07T11:58:15.975Z,93.13
2023-04-07T12:00:57.417Z,92.89
2023-04-07T12:03:27.866Z,92.45
2023-04-07T12:05:58.035Z,92.16
2023-04-07T12:08:41.028Z,91.72
2023-04-07T12:11:11.121Z,91.50
2023-04-07T12:13:43.396Z,91.29
2023-04-07T12:16:13.095Z,91.22
2023-04-07T12:18:43.887Z,90.93
2023-04-07T12:21:13.753Z,90.54
2023-04-07T12:23:43.914Z,90.30
2023-04-07T12:26:13.793Z,89.96
2023-04-07T12:28:46.133Z,89.80
2023-04-07T12:31:16.142Z,89.81
2023-04-07T12:33:45.957Z,89.98
2023-04-07T12:36:15.922Z,89.78
2023-04-07T12:38:45.796Z,89.62
2023-04-07T12:41:15.728Z,89.69
2023-04-07T12:43:48.314Z,89.40
2023-04-07T12:46:18.326Z,89.18
2023-04-07T12:48:48.136Z,88.80
2023-04-07T12:51:18.013Z,88.56
2023-04-07T12:53:48.448Z,88.35
2023-04-07T12:56:18.288Z,88.61
2023-04-07T12:58:50.597Z,88.52
2023-04-07T13:01:20.497Z,88.33
2023-04-07T13:03:50.590Z,88.20
2023-04-07T13:06:21.310Z,87.63
2023-04-07T13:08:51.839Z,87.09
2023-04-07T13:11:21.997Z,86.43
2023-04-07T13:13:56.460Z,85.82
2023-04-07T13:16:27.131Z,85.58
2023-04-07T13:18:57.404Z,85.28
2023-04-07T13:21:45.536Z,85.21
2023-04-07T13:24:16.810Z,85.20
2023-04-07T13:26:46.551Z,85.24
2023-04-07T13:29:19.016Z,85.10
2023-04-07T13:31:48.990Z,85.33
2023-04-07T13:34:18.948Z,85.19
2023-04-07T13:36:48.685Z,84.89
2023-04-07T13:39:18.764Z,84.75
2023-04-07T13:41:48.506Z,84.59
2023-04-07T13:44:20.856Z,84.74
2023-04-07T13:46:50.593Z,84.39
2023-04-07T13:49:20.312Z,84.51
2023-04-07T13:51:50.058Z,84.41
2023-04-07T13:54:19.985Z,84.54
2023-04-07T13:56:51.207Z,84.28
2023-04-07T13:59:23.531Z,84.30
2023-04-07T14:01:53.501Z,84.13
2023-04-07T14:04:23.302Z,83.74
2023-04-07T14:06:53.055Z,83.40
2023-04-07T14:09:22.792Z,83.32
2023-04-07T14:11:52.655Z,83.44
2023-04-07T14:14:25.098Z,83.49
2023-04-07T14:16:54.990Z,83.66
2023-04-07T14:19:25.063Z,83.53
2023-04-07T14:21:54.985Z,83.80
2023-04-07T14:24:24.777Z,83.48
2023-04-07T14:26:54.827Z,83.60
2023-04-07T14:29:27.134Z,83.39
2023-04-07T14:31:56.867Z,83.42
2023-04-07T14:34:26.616Z,83.27
2023-04-07T14:36:57.435Z,83.16
2023-04-07T14:39:27.525Z,83.11
2023-04-07T14:41:57.311Z,83.21
2023-04-07T14:44:31.322Z,83.09
2023-04-07T14:47:00.771Z,83.08
2023-04-07T14:49:31.211Z,83.12
2023-04-07T14:52:00.882Z,82.60
2023-04-07T14:54:30.800Z,82.17
2023-04-07T14:57:00.541Z,81.73
2023-04-07T14:59:32.876Z,81.69
2023-04-07T15:02:02.660Z,81.72
2023-04-07T15:04:32.512Z,81.41
2023-04-07T15:07:02.262Z,80.87
2023-04-07T15:09:31.891Z,80.80
2023-04-07T15:12:02.283Z,80.87
2023-04-07T15:14:34.741Z,80.75
2023-04-07T15:17:04.475Z,80.66
2023-04-07T15:19:34.178Z,80.58
2023-04-07T15:22:03.921Z,80.72
2023-04-07T15:24:33.583Z,80.59
2023-04-07T15:27:03.708Z,80.86
2023-04-07T15:29:37.384Z,80.82
2023-04-07T15:32:07.397Z,81.12
2023-04-07T15:34:37.140Z,81.21
2023-04-07T15:37:06.848Z,81.10
2023-04-07T15:39:36.577Z,81.10
2023-04-07T15:42:09.903Z,81.34
2023-04-07T15:44:42.252Z,81.48
2023-04-07T15:47:12.219Z,81.59
2023-04-07T15:49:42.466Z,81.74
2023-04-07T15:52:13.715Z,82.15
2023-04-07T15:54:43.378Z,82.61
2023-04-07T15:57:13.366Z,83.03
2023-04-07T15:59:45.744Z,83.06
2023-04-07T16:02:15.743Z,83.46
2023-04-07T16:04:47.519Z,83.61
2023-04-07T16:07:17.231Z,83.82
2023-04-07T16:09:47.001Z,84.00
2023-04-07T16:12:17.364Z,84.36
2023-04-07T16:14:50.379Z,84.39
2023-04-07T16:17:20.112Z,84.48
2023-04-07T16:19:49.854Z,84.62
2023-04-07T16:22:19.580Z,84.80
2023-04-07T16:24:49.296Z,84.77
2023-04-07T16:27:18.944Z,84.92
2023-04-07T16:29:51.392Z,85.00
2023-04-07T16:32:21.124Z,84.88
2023-04-07T16:34:50.965Z,85.26
2023-04-07T16:37:20.741Z,84.89
2023-04-07T16:39:50.725Z,85.07
2023-04-07T16:42:20.516Z,85.11
2023-04-07T16:44:52.848Z,85.43
2023-04-07T16:47:22.812Z,85.40
2023-04-07T16:49:52.504Z,85.52
2023-04-07T16:52:22.986Z,85.64
2023-04-07T16:54:52.930Z,86.08
2023-04-07T16:57:22.726Z,86.42
2023-04-07T16:59:55.066Z,86.42
2023-04-07T17:02:25.417Z,86.69
2023-04-07T17:04:55.188Z,86.80
2023-04-07T17:07:24.892Z,86.96
2023-04-07T17:09:54.656Z,87.07
2023-04-07T17:12:24.340Z,87.33
2023-04-07T17:14:56.656Z,87.50
2023-04-07T17:17:26.678Z,87.49
2023-04-07T17:19:57.720Z,87.68
2023-04-07T17:22:27.509Z,87.42
2023-04-07T17:24:57.169Z,87.76
2023-04-07T17:27:26.844Z,87.81
2023-04-07T17:29:59.325Z,87.69
2023-04-07T17:32:29.107Z,87.82
2023-04-07T17:34:58.790Z,87.72
2023-04-07T17:37:28.498Z,87.93
2023-04-07T17:39:58.188Z,87.69
2023-04-07T17:42:28.368Z,88.08
2023-04-07T17:45:00.680Z,88.04
2023-04-07T17:47:30.370Z,88.20
2023-04-07T17:50:00.069Z,88.55
2023-04-07T17:52:30.027Z,88.41
2023-04-07T17:54:59.745Z,88.76
2023-04-07T17:57:29.633Z,88.73
2023-04-07T18:00:01.981Z,88.86
2023-04-07T18:02:31.859Z,89.00
2023-04-07T18:05:01.874Z,88.94
2023-04-07T18:07:32.377Z,89.10
2023-04-07T18:10:02.147Z,89.27
2023-04-07T18:12:32.437Z,89.28
2023-04-07T18:15:04.785Z,89.70
2023-04-07T18:17:36.826Z,89.45
2023-04-07T18:20:07.536Z,89.68
2023-04-07T18:22:37.511Z,89.49
2023-04-07T18:25:07.824Z,89.85
2023-04-07T18:27:38.021Z,89.78
2023-04-07T18:30:11.749Z,89.93
2023-04-07T18:32:41.636Z,89.81
2023-04-07T18:35:12.034Z,89.98
2023-04-07T18:37:44.108Z,89.99
2023-04-07T18:40:15.022Z,89.94
2023-04-07T18:42:44.719Z,90.01
2023-04-07T18:45:17.157Z,90.04
2023-04-07T18:47:47.982Z,89.94
2023-04-07T18:50:18.277Z,90.16
2023-04-07T18:52:47.996Z,90.21
2023-04-07T18:55:17.735Z,90.12
2023-04-07T18:57:47.478Z,90.38
2023-04-07T19:00:19.838Z,90.46
2023-04-07T19:02:49.672Z,90.51
2023-04-07T19:05:22.355Z,90.58
2023-04-07T19:07:54.158Z,90.63
2023-04-07T19:10:24.241Z,90.71
2023-04-07T19:12:53.929Z,90.82
2023-04-07T19:15:26.241Z,90.83
2023-04-07T19:17:55.939Z,91.01
2023-04-07T19:20:25.699Z,90.99
2023-04-07T19:22:55.377Z,91.08
2023-04-07T19:25:26.116Z,91.07
2023-04-07T19:27:55.870Z,91.25
2023-04-07T19:30:28.153Z,91.28
2023-04-07T19:32:58.041Z,91.43
2023-04-07T19:35:27.796Z,91.44
2023-04-07T19:37:57.506Z,91.64
2023-04-07T19:40:27.488Z,91.67
2023-04-07T19:42:57.434Z,91.69
2023-04-07T19:45:29.803Z,91.69
2023-04-07T19:48:00.342Z,91.65
2023-04-07T19:50:30.679Z,91.74
2023-04-07T19:53:00.334Z,91.78
2023-04-07T19:55:30.656Z,92.05
2023-04-07T19:58:00.338Z,91.98
2023-04-07T20:00:33.562Z,91.96
2023-04-07T20:03:03.689Z,92.08
2023-04-07T20:05:34.238Z,92.09
2023-04-07T20:08:03.936Z,92.37
2023-04-07T20:10:33.657Z,92.42
2023-04-07T20:13:04.598Z,92.58
2023-04-07T20:15:38.582Z,92.58
2023-04-07T20:18:08.297Z,92.87
2023-04-07T20:20:38.014Z,92.96
2023-04-07T20:23:07.722Z,93.11
2023-04-07T20:25:37.532Z,93.11
2023-04-07T20:28:07.220Z,93.26
2023-04-07T20:30:39.555Z,93.39
2023-04-07T20:33:09.703Z,93.42
2023-04-07T20:35:39.452Z,93.28
2023-04-07T20:38:09.146Z,93.44
2023-04-07T20:40:39.065Z,93.40
2023-04-07T20:43:09.439Z,93.66
2023-04-07T20:45:41.823Z,93.66
2023-04-07T20:48:11.552Z,93.76
2023-04-07T20:50:41.260Z,93.63
2023-04-07T20:53:11.497Z,93.87
2023-04-07T20:55:41.399Z,93.70
2023-04-07T20:58:11.269Z,93.76
2023-04-07T21:00:43.562Z,93.71
2023-04-07T21:03:13.476Z,93.86
2023-04-07T21:05:43.606Z,93.88
2023-04-07T21:08:14.617Z,93.79
2023-04-07T21:10:44.645Z,93.82
2023-04-07T21:13:14.353Z,93.80
2023-04-07T21:15:46.657Z,94.04
2023-04-07T21:18:17.559Z,94.04
2023-04-07T21:20:48.560Z,93.88
2023-04-07T21:23:18.213Z,93.99
2023-04-07T21:25:47.954Z,93.96
2023-04-07T21:28:17.621Z,93.87
2023-04-07T21:30:53.369Z,94.15
2023-04-07T21:33:23.232Z,94.13
2023-04-07T21:35:55.144Z,94.02
2023-04-07T21:38:25.193Z,94.34
2023-04-07T21:40:55.423Z,94.30
2023-04-07T21:43:25.089Z,94.20
2023-04-07T21:45:57.386Z,94.46
2023-04-07T21:48:27.024Z,94.39
2023-04-07T21:50:56.712Z,94.25
2023-04-07T21:53:26.348Z,94.21
2023-04-07T21:55:56.527Z,94.47
2023-04-07T21:58:26.496Z,94.75
2023-04-07T22:00:58.818Z,94.63
2023-04-07T22:03:29.652Z,94.82
2023-04-07T22:06:01.242Z,94.59
2023-04-07T22:08:30.940Z,94.98
2023-04-07T22:11:01.011Z,95.12
2023-04-07T22:13:30.663Z,95.05
2023-04-07T22:16:03.138Z,95.13
2023-04-07T22:18:32.835Z,95.00
2023-04-07T22:21:02.575Z,95.23
2023-04-07T22:23:32.235Z,95.22
2023-04-07T22:26:01.978Z,95.43
2023-04-07T22:28:31.642Z,95.44
2023-04-07T22:31:03.952Z,95.70
2023-04-07T22:33:33.689Z,95.68
2023-04-07T22:36:03.775Z,95.83
2023-04-07T22:38:33.577Z,95.89
2023-04-07T22:41:03.286Z,95.93
2023-04-07T22:43:32.984Z,95.89
2023-04-07T22:46:05.526Z,96.17
2023-04-07T22:48:35.204Z,96.05
2023-04-07T22:51:04.947Z,96.13
2023-04-07T22:53:34.613Z,96.08
2023-04-07T22:56:04.373Z,96.03
2023-04-07T22:58:34.016Z,96.00
2023-04-07T23:01:06.546Z,96.01
2023-04-07T23:03:36.448Z,96.18
2023-04-07T23:06:06.443Z,96.19
2023-04-07T23:08:36.520Z,96.27
2023-04-07T23:11:06.198Z,95.89
2023-04-07T23:13:35.848Z,96.21
2023-04-07T23:16:08.756Z,95.94
2023-04-07T23:18:38.446Z,95.95
2023-04-07T23:21:08.168Z,96.26
2023-04-07T23:23:39.102Z,95.98
2023-04-07T23:26:09.425Z,95.99
2023-04-07T23:28:39.235Z,96.27
2023-04-07T23:31:11.664Z,96.42
2023-04-07T23:33:41.607Z,96.30
2023-04-07T23:36:11.305Z,96.28
2023-04-07T23:38:41.807Z,96.18
2023-04-07T23:41:11.531Z,96.22
2023-04-07T23:43:41.423Z,96.44
2023-04-07T23:46:13.830Z,96.15
2023-04-07T23:48:44.061Z,96.07
2023-04-07T23:51:13.816Z,96.34
2023-04-07T23:53:43.476Z,96.28
2023-04-07T23:56:13.174Z,96.44
2023-04-07T23:58:43.055Z,96.13
